Time;durP1;ratioP1;P1;durP2;ratioP2;P2;SDS_P1;SDS_P2;PMS_P1;PMS_P2;Temp;Humidity;BMP_temperature;BMP_pressure;BME280_temperature;BME280_humidity;BME280_pressure;Samples;Min_cycle;Max_cycle;Signal;HPM_P1;HPM_P2
2022/03/27 00:00:57;;;;;;;43.80;16.38;;;5.30;1.00;;;;;;6290075;22;20036;-82
2022/03/27 00:03:44;;;;;;;39.60;17.25;;;5.30;1.00;;;;;;6294658;22;20023;-82
2022/03/27 00:06:34;;;;;;;44.55;16.17;;;5.30;1.00;;;;;;6292923;22;20023;-82
2022/03/27 00:09:24;;;;;;;45.38;15.57;;;5.20;1.00;;;;;;6293211;22;20077;-82
2022/03/27 00:12:11;;;;;;;40.08;14.63;;;5.10;1.00;;;;;;6302681;22;20046;-81
2022/03/27 00:15:01;;;;;;;29.40;14.45;;;5.00;1.00;;;;;;6292053;22;20023;-81
2022/03/27 00:17:48;;;;;;;29.50;14.15;;;5.10;1.00;;;;;;6288393;22;20023;-81
2022/03/27 00:20:36;;;;;;;35.03;14.63;;;5.10;1.00;;;;;;6288292;22;20084;-82
2022/03/27 00:23:24;;;;;;;40.55;15.20;;;5.10;1.00;;;;;;6256038;22;20095;-81
2022/03/27 00:26:12;;;;;;;36.83;15.77;;;5.10;1.00;;;;;;6257336;22;20031;-82
2022/03/27 00:29:00;;;;;;;32.92;13.73;;;5.00;1.00;;;;;;6278452;22;20028;-81
2022/03/27 00:31:58;;;;;;;28.63;14.25;;;4.90;2.50;;;;;;6253519;22;20327;-81
2022/03/27 00:34:45;;;;;;;34.85;15.95;;;4.90;1.00;;;;;;6276746;22;20098;-83
2022/03/27 00:37:34;;;;;;;36.22;15.38;;;4.90;1.00;;;;;;6275272;22;20023;-82
2022/03/27 00:40:21;;;;;;;34.58;14.50;;;5.00;1.00;;;;;;6255628;22;20376;-82
2022/03/27 00:43:09;;;;;;;32.80;14.73;;;5.00;1.00;;;;;;6253897;22;20042;-81
2022/03/27 00:46:06;;;;;;;34.75;14.88;;;4.90;1.00;;;;;;6275300;22;20411;-82
2022/03/27 00:48:54;;;;;;;43.97;15.57;;;4.80;1.00;;;;;;6274678;22;20051;-81
2022/03/27 00:51:46;;;;;;;44.33;14.95;;;4.70;5.70;;;;;;6278274;22;20042;-82
2022/03/27 00:54:35;;;;;;;40.85;16.17;;;4.60;40.50;;;;;;6280144;22;20023;-83
2022/03/27 00:57:23;;;;;;;31.17;14.40;;;4.50;55.00;;;;;;6254352;22;20031;-82
2022/03/27 01:00:36;;;;;;;38.95;15.82;;;4.50;99.90;;;;;;6253278;22;20267;-80
2022/03/27 01:03:26;;;;;;;37.30;16.05;;;4.40;99.90;;;;;;6256978;22;20024;-80
2022/03/27 01:06:41;;;;;;;34.70;15.80;;;4.30;99.90;;;;;;6273858;22;20110;-81
2022/03/27 01:09:37;;;;;;;33.22;15.10;;;4.30;99.90;;;;;;6273358;22;20032;-82
2022/03/27 01:12:34;;;;;;;35.35;14.93;;;4.20;99.90;;;;;;6254265;22;20039;-82
2022/03/27 01:15:29;;;;;;;30.70;14.32;;;4.20;99.90;;;;;;6252690;22;20020;-81
2022/03/27 01:18:20;;;;;;;31.65;14.52;;;4.20;99.90;;;;;;6253169;22;20020;-82
2022/03/27 01:21:08;;;;;;;44.03;15.68;;;4.20;99.90;;;;;;6273295;22;20020;-83
2022/03/27 01:24:00;;;;;;;36.40;14.90;;;4.20;99.90;;;;;;6253423;22;20035;-82
2022/03/27 01:26:48;;;;;;;35.60;14.80;;;4.20;99.90;;;;;;6233435;22;20137;-82
2022/03/27 01:29:39;;;;;;;42.83;15.27;;;4.40;99.90;;;;;;6253267;22;20028;-82
2022/03/27 01:32:26;;;;;;;44.03;16.42;;;4.40;99.90;;;;;;6255660;22;20039;-83
2022/03/27 01:35:14;;;;;;;36.88;14.38;;;4.50;99.90;;;;;;6252846;22;20441;-83
2022/03/27 01:38:01;;;;;;;36.10;15.77;;;4.50;99.90;;;;;;6251685;22;20034;-83
2022/03/27 01:40:49;;;;;;;37.22;15.02;;;4.60;99.90;;;;;;6252433;22;20408;-82
2022/03/27 01:43:36;;;;;;;37.60;15.13;;;4.60;99.90;;;;;;6274392;22;20122;-82
2022/03/27 01:46:23;;;;;;;34.40;15.02;;;4.50;99.90;;;;;;6273802;22;20031;-82
2022/03/27 01:49:13;;;;;;;31.08;14.40;;;4.50;99.90;;;;;;6252104;22;20402;-82
2022/03/27 01:52:03;;;;;;;37.50;16.65;;;4.30;99.90;;;;;;6253080;22;20308;-82
2022/03/27 01:54:51;;;;;;;39.63;16.33;;;4.40;99.90;;;;;;6275433;22;20066;-83
2022/03/27 01:57:39;;;;;;;37.45;15.77;;;4.30;99.90;;;;;;6252480;22;20035;-82
2022/03/27 02:00:29;;;;;;;40.33;18.00;;;4.20;99.90;;;;;;6275004;22;20027;-82
2022/03/27 02:03:17;;;;;;;46.53;17.65;;;4.10;37.80;;;;;;6276734;22;20303;-82
2022/03/27 02:06:05;;;;;;;31.42;15.70;;;3.90;19.30;;;;;;6276742;22;20137;-81
2022/03/27 02:08:52;;;;;;;35.15;16.33;;;3.80;99.90;;;;;;6255949;22;20046;-82
2022/03/27 02:11:41;;;;;;;36.50;16.08;;;3.70;99.90;;;;;;6253144;22;20031;-82
2022/03/27 02:14:28;;;;;;;38.08;15.55;;;3.70;99.90;;;;;;6275642;22;20027;-83
2022/03/27 02:17:15;;;;;;;37.65;15.75;;;3.70;99.90;;;;;;6277464;22;20024;-81
2022/03/27 02:20:03;;;;;;;38.88;15.88;;;3.60;1.00;;;;;;6275681;22;20058;-82
2022/03/27 02:22:50;;;;;;;34.40;16.50;;;3.70;1.00;;;;;;6277113;22;20039;-82
2022/03/27 02:25:38;;;;;;;39.92;16.33;;;3.70;1.00;;;;;;6276114;22;20089;-81
2022/03/27 02:28:30;;;;;;;37.05;16.35;;;3.60;1.00;;;;;;6275235;22;20260;-81
2022/03/27 02:31:19;;;;;;;39.13;17.85;;;3.50;93.90;;;;;;6252620;22;20024;-81
2022/03/27 02:34:08;;;;;;;36.33;16.13;;;3.40;99.90;;;;;;6256878;22;20024;-82
2022/03/27 02:36:55;;;;;;;38.08;17.55;;;3.40;99.90;;;;;;6276111;22;20023;-80
2022/03/27 02:39:45;;;;;;;35.88;16.65;;;3.30;1.00;;;;;;6276546;22;20115;-82
2022/03/27 02:42:32;;;;;;;38.88;17.75;;;3.20;99.90;;;;;;6277884;22;20035;-82
2022/03/27 02:45:20;;;;;;;40.00;17.20;;;3.20;1.00;;;;;;6277373;22;20020;-82
2022/03/27 02:48:10;;;;;;;38.53;16.42;;;3.20;1.00;;;;;;6276263;22;20031;-83
2022/03/27 02:50:57;;;;;;;38.55;18.27;;;3.20;99.90;;;;;;6276210;22;20131;-82
2022/03/27 02:53:44;;;;;;;41.25;16.25;;;3.30;1.00;;;;;;6276713;22;20024;-82
2022/03/27 02:56:32;;;;;;;35.30;16.90;;;3.30;99.90;;;;;;6276649;22;20031;-83
2022/03/27 02:59:22;;;;;;;31.98;15.88;;;3.30;99.90;;;;;;6277401;22;20023;-81
2022/03/27 03:02:09;;;;;;;40.50;17.92;;;3.30;99.90;;;;;;6276707;22;20028;-82
2022/03/27 03:04:57;;;;;;;31.73;16.00;;;3.20;1.00;;;;;;6255179;22;20323;-83
2022/03/27 03:07:47;;;;;;;38.20;16.27;;;3.20;99.90;;;;;;6253970;22;20484;-82
2022/03/27 03:10:35;;;;;;;45.95;16.60;;;3.10;1.00;;;;;;6256759;22;20024;-81
2022/03/27 03:13:23;;;;;;;39.78;16.77;;;3.10;99.90;;;;;;6235134;22;20046;-82
2022/03/27 03:16:12;;;;;;;39.47;17.45;;;3.20;99.90;;;;;;6276822;22;20031;-81
2022/03/27 03:18:59;;;;;;;34.50;15.88;;;3.20;99.90;;;;;;6255605;22;20024;-83
2022/03/27 03:21:46;;;;;;;41.28;16.40;;;3.20;28.40;;;;;;6256437;22;20394;-82
2022/03/27 03:24:37;;;;;;;35.75;16.77;;;3.30;99.90;;;;;;6282544;22;20028;-82
2022/03/27 03:27:27;;;;;;;32.60;15.75;;;3.10;99.90;;;;;;6280109;22;20028;-82
2022/03/27 03:30:16;;;;;;;39.08;16.40;;;3.10;3.00;;;;;;6252540;22;20027;-81
2022/03/27 03:33:05;;;;;;;37.38;18.05;;;3.00;13.60;;;;;;6254475;22;20020;-81
2022/03/27 03:35:52;;;;;;;37.05;16.15;;;3.00;1.00;;;;;;6258303;22;20023;-82
2022/03/27 03:38:41;;;;;;;45.15;17.15;;;3.10;99.90;;;;;;6279443;22;20039;-83
2022/03/27 03:41:29;;;;;;;39.67;16.70;;;3.10;88.00;;;;;;6280878;22;20036;-80
2022/03/27 03:44:39;;;;;;;33.08;16.00;;;3.00;99.90;;;;;;6286346;22;20069;-81
2022/03/27 03:47:26;;;;;;;41.65;16.35;;;2.90;99.90;;;;;;6281571;22;20031;-82
2022/03/27 03:50:14;;;;;;;42.28;16.90;;;2.90;99.90;;;;;;6280133;22;20024;-81
2022/03/27 03:53:04;;;;;;;35.47;15.80;;;2.90;1.00;;;;;;6257646;22;20031;-81
2022/03/27 03:55:52;;;;;;;40.08;17.45;;;2.80;1.00;;;;;;6259302;22;20023;-81
2022/03/27 03:58:46;;;;;;;40.10;17.27;;;2.80;1.00;;;;;;6281715;22;20085;-83
2022/03/27 04:01:33;;;;;;;41.78;17.02;;;2.80;1.00;;;;;;6280862;22;20028;-80
2022/03/27 04:04:20;;;;;;;45.75;17.77;;;2.90;1.00;;;;;;6258618;22;20284;-82
2022/03/27 04:07:08;;;;;;;45.25;17.98;;;2.90;99.90;;;;;;6282097;22;20034;-82
2022/03/27 04:09:57;;;;;;;35.65;16.80;;;2.90;99.90;;;;;;6284640;22;20023;-81
2022/03/27 04:12:52;;;;;;;42.25;18.35;;;2.90;99.90;;;;;;6285056;22;20066;-82
2022/03/27 04:15:39;;;;;;;39.65;17.63;;;2.90;99.90;;;;;;6266335;22;20088;-80
2022/03/27 04:18:45;;;;;;;40.10;16.92;;;3.00;99.90;;;;;;6266578;22;20034;-81
2022/03/27 04:21:37;;;;;;;32.33;16.40;;;3.10;99.90;;;;;;6284122;22;20007;-81
2022/03/27 04:24:24;;;;;;;43.50;17.38;;;3.10;99.90;;;;;;6285421;22;20023;-80
2022/03/27 04:27:11;;;;;;;45.25;17.02;;;3.10;99.90;;;;;;6263408;22;20031;-81
2022/03/27 04:29:58;;;;;;;39.83;15.85;;;3.20;99.90;;;;;;6285981;22;20023;-82
2022/03/27 04:32:47;;;;;;;47.78;17.38;;;3.10;99.90;;;;;;6287787;22;20079;-82
2022/03/27 04:35:36;;;;;;;38.35;16.13;;;3.00;99.90;;;;;;6288369;22;20050;-81
2022/03/27 04:38:26;;;;;;;35.92;16.23;;;3.00;99.90;;;;;;6267532;22;20054;-80
2022/03/27 04:41:17;;;;;;;42.38;17.98;;;2.90;99.90;;;;;;6289081;22;20023;-82
2022/03/27 04:44:05;;;;;;;38.65;17.27;;;2.80;1.00;;;;;;6286540;22;20125;-83
2022/03/27 04:46:52;;;;;;;43.30;18.23;;;2.70;99.90;;;;;;6282818;22;20093;-84
2022/03/27 04:49:39;;;;;;;48.90;18.25;;;2.70;1.00;;;;;;6284739;22;20316;-81
2022/03/27 04:52:27;;;;;;;47.78;18.05;;;2.60;99.90;;;;;;6280455;22;20043;-81
2022/03/27 04:55:14;;;;;;;38.55;16.70;;;2.60;99.90;;;;;;6258526;22;20024;-82
2022/03/27 04:58:01;;;;;;;42.40;18.35;;;2.60;1.00;;;;;;6280511;22;20081;-81
2022/03/27 05:00:49;;;;;;;41.83;17.88;;;2.60;1.00;;;;;;6282376;22;20403;-82
2022/03/27 05:03:39;;;;;;;45.03;17.85;;;2.60;1.00;;;;;;6280415;22;20051;-82
2022/03/27 05:06:26;;;;;;;40.92;17.42;;;2.50;13.30;;;;;;6233842;22;20023;-82
2022/03/27 05:09:13;;;;;;;43.28;18.67;;;2.50;99.90;;;;;;6252539;22;20043;-82
2022/03/27 05:12:05;;;;;;;37.05;17.65;;;2.40;99.90;;;;;;6274781;22;20043;-84
2022/03/27 05:14:54;;;;;;;39.97;13.43;;;2.30;1.00;;;;;;6253422;22;20069;-82
2022/03/27 05:17:55;;;;;;;38.55;17.35;;;2.30;39.60;;;;;;6274427;22;20020;-82
2022/03/27 05:20:44;;;;;;;53.17;18.20;;;2.30;99.90;;;;;;6251885;22;20020;-82
2022/03/27 05:23:31;;;;;;;39.92;18.15;;;2.30;1.00;;;;;;6273932;22;20103;-82
2022/03/27 05:26:19;;;;;;;41.17;17.08;;;2.30;99.90;;;;;;6274778;22;20113;-82
2022/03/27 05:29:08;;;;;;;36.97;17.25;;;2.20;1.00;;;;;;6274713;22;20031;-82
2022/03/27 05:31:57;;;;;;;35.65;16.90;;;2.20;99.90;;;;;;6273048;22;20485;-81
2022/03/27 05:34:44;;;;;;;43.05;18.20;;;2.20;1.00;;;;;;6253149;22;20055;-82
2022/03/27 05:37:38;;;;;;;41.72;17.67;;;2.30;99.90;;;;;;6275805;22;20038;-81
2022/03/27 05:40:28;;;;;;;44.30;17.58;;;2.40;1.00;;;;;;6276404;22;20039;-81
2022/03/27 05:43:17;;;;;;;41.40;17.73;;;2.50;99.90;;;;;;6275239;22;20028;-82
2022/03/27 05:46:07;;;;;;;44.95;16.45;;;2.70;1.00;;;;;;6277569;22;20023;-82
2022/03/27 05:48:55;;;;;;;39.13;17.08;;;2.70;99.90;;;;;;6276962;22;20111;-81
2022/03/27 05:51:43;;;;;;;41.78;17.30;;;2.90;1.00;;;;;;6275855;22;20027;-81
2022/03/27 05:54:32;;;;;;;50.90;18.05;;;3.00;99.90;;;;;;6255294;22;20050;-81
2022/03/27 05:57:20;;;;;;;38.70;17.10;;;3.20;99.90;;;;;;6277627;22;20031;-80
2022/03/27 06:00:09;;;;;;;36.13;16.63;;;3.30;1.00;;;;;;6260760;22;20032;-81
2022/03/27 06:02:59;;;;;;;38.85;17.25;;;3.30;99.90;;;;;;6254785;22;20031;-82
2022/03/27 06:05:49;;;;;;;39.93;17.40;;;3.40;99.90;;;;;;6273765;22;20108;-81
2022/03/27 06:08:39;;;;;;;34.72;17.08;;;3.50;1.00;;;;;;6273644;22;20027;-81
2022/03/27 06:11:28;;;;;;;35.63;17.52;;;3.60;99.90;;;;;;6252396;22;20027;-84
2022/03/27 06:14:16;;;;;;;36.47;16.33;;;3.80;99.90;;;;;;6273606;22;20023;-82
2022/03/27 06:21:22;;;;;;;33.17;15.63;;;4.10;99.90;;;;;;6220690;22;20016;-81
2022/03/27 06:24:10;;;;;;;36.00;16.90;;;4.30;99.90;;;;;;6252156;22;20023;-82
2022/03/27 06:26:57;;;;;;;39.83;17.65;;;4.50;89.60;;;;;;6273598;22;20034;-82
2022/03/27 06:29:44;;;;;;;38.53;18.08;;;4.80;1.00;;;;;;6250956;22;20036;-81
2022/03/27 06:32:34;;;;;;;33.47;17.20;;;5.10;99.90;;;;;;6272196;22;20054;-81
2022/03/27 06:35:22;;;;;;;36.30;17.50;;;5.50;1.00;;;;;;6272415;22;20065;-81
2022/03/27 06:38:10;;;;;;;40.20;16.15;;;5.90;99.90;;;;;;6287145;22;20077;-80
2022/03/27 06:40:58;;;;;;;39.53;18.27;;;6.40;99.90;;;;;;6265330;22;20023;-83
2022/03/27 06:43:46;;;;;;;45.10;16.75;;;6.90;1.00;;;;;;6287319;22;20034;-80
2022/03/27 06:46:33;;;;;;;41.63;16.13;;;7.30;1.00;;;;;;6286052;22;20031;-81
2022/03/27 06:49:20;;;;;;;39.17;16.23;;;7.60;1.00;;;;;;6291554;22;20015;-80
2022/03/27 06:52:07;;;;;;;35.30;16.08;;;8.00;99.90;;;;;;6294637;22;20050;-84
2022/03/27 06:55:04;;;;;;;35.15;16.50;;;8.40;99.90;;;;;;6278712;22;20024;-86
2022/03/27 06:57:53;;;;;;;34.47;15.32;;;8.70;99.90;;;;;;6273785;22;20035;-86
2022/03/27 07:03:46;;;;;;;29.13;14.52;;;9.50;1.00;;;;;;6276477;22;20043;-87
2022/03/27 07:06:34;;;;;;;37.05;15.68;;;10.00;99.90;;;;;;6277847;22;20019;-85
2022/03/27 07:09:25;;;;;;;37.15;15.88;;;10.30;99.90;;;;;;6275457;22;20032;-86
2022/03/27 07:12:13;;;;;;;32.55;15.00;;;10.50;99.90;;;;;;6285768;22;20034;-86
2022/03/27 07:15:06;;;;;;;32.72;16.63;;;10.70;99.90;;;;;;6268432;22;20020;-84
2022/03/27 07:18:04;;;;;;;36.67;16.13;;;10.90;99.90;;;;;;6291840;22;20011;-86
2022/03/27 07:20:51;;;;;;;29.00;15.18;;;11.10;99.90;;;;;;6273328;22;20028;-84
2022/03/27 07:23:39;;;;;;;30.98;15.38;;;11.30;99.90;;;;;;6273335;22;20031;-86
2022/03/27 07:26:29;;;;;;;32.35;14.93;;;11.40;99.90;;;;;;6293360;22;20085;-85
2022/03/27 07:29:19;;;;;;;32.53;15.68;;;11.50;99.90;;;;;;6298600;22;20008;-83
2022/03/27 07:32:08;;;;;;;32.05;16.00;;;11.50;99.90;;;;;;6270638;22;20074;-84
2022/03/27 07:34:58;;;;;;;33.90;15.88;;;11.70;99.90;;;;;;6266792;22;20022;-84
2022/03/27 07:37:46;;;;;;;32.33;15.75;;;11.80;99.90;;;;;;6287387;22;20098;-84
2022/03/27 07:40:33;;;;;;;31.80;15.45;;;12.00;90.60;;;;;;6256322;22;20366;-85
2022/03/27 07:43:21;;;;;;;38.00;16.52;;;12.10;58.90;;;;;;6255285;22;20421;-85
2022/03/27 07:46:09;;;;;;;33.78;16.17;;;12.30;55.90;;;;;;6275827;22;20071;-83
2022/03/27 07:48:58;;;;;;;32.40;15.95;;;12.40;32.10;;;;;;6275219;22;20296;-85
2022/03/27 07:51:47;;;;;;;37.55;16.27;;;12.80;27.50;;;;;;6274926;22;20076;-86
2022/03/27 07:54:35;;;;;;;27.55;15.13;;;13.20;20.90;;;;;;6252208;22;20019;-85
2022/03/27 07:57:22;;;;;;;31.90;16.50;;;13.50;9.10;;;;;;6275375;22;20023;-85
2022/03/27 08:00:15;;;;;;;33.67;16.65;;;13.70;9.90;;;;;;6275598;22;20091;-84
2022/03/27 08:03:03;;;;;;;31.02;16.73;;;14.00;1.00;;;;;;6252618;22;20063;-85
2022/03/27 08:05:50;;;;;;;32.17;15.40;;;14.10;1.00;;;;;;6274991;22;20032;-83
2022/03/27 08:08:40;;;;;;;30.48;16.10;;;14.50;1.00;;;;;;6274921;22;20034;-83
2022/03/27 08:11:27;;;;;;;27.13;15.80;;;15.00;1.00;;;;;;6251614;22;20121;-83
2022/03/27 08:14:15;;;;;;;26.65;15.68;;;15.40;1.00;;;;;;6252048;22;20451;-85
2022/03/27 08:17:05;;;;;;;28.95;15.18;;;15.70;1.00;;;;;;6256218;22;20031;-84
2022/03/27 08:19:52;;;;;;;33.15;16.40;;;16.20;1.00;;;;;;6279415;22;20023;-82
2022/03/27 08:22:41;;;;;;;30.33;15.93;;;16.60;1.00;;;;;;6280471;22;20031;-83
2022/03/27 08:28:35;;;;;;;26.65;15.52;;;17.10;1.00;;;;;;6275447;22;20035;-83
2022/03/27 08:31:22;;;;;;;28.65;14.93;;;17.50;1.00;;;;;;6278603;22;20051;-83
2022/03/27 08:34:10;;;;;;;26.90;15.07;;;18.00;1.00;;;;;;6274579;22;20275;-86
2022/03/27 08:37:02;;;;;;;25.05;14.00;;;18.20;1.00;;;;;;6275952;22;20062;-81
2022/03/27 08:39:52;;;;;;;26.35;15.02;;;18.60;1.00;;;;;;6254420;22;20024;-83
2022/03/27 08:42:43;;;;;;;25.15;14.32;;;19.00;1.00;;;;;;6276733;22;20024;-84
2022/03/27 08:45:30;;;;;;;28.30;14.90;;;19.50;1.00;;;;;;6254423;22;20054;-83
2022/03/27 08:48:18;;;;;;;29.73;16.27;;;20.00;1.00;;;;;;6253224;22;20421;-84
2022/03/27 08:51:28;;;;;;;27.75;15.10;;;20.20;1.00;;;;;;6276384;22;20027;-84
2022/03/27 08:54:24;;;;;;;28.55;15.23;;;20.30;1.00;;;;;;6275319;22;20107;-85
2022/03/27 08:57:50;;;;;;;28.75;15.85;;;20.20;1.00;;;;;;6255703;22;20074;-83
2022/03/27 09:00:41;;;;;;;29.23;15.20;;;20.60;1.00;;;;;;6275035;22;20027;-83
2022/03/27 09:03:30;;;;;;;25.02;14.95;;;21.30;1.00;;;;;;6254539;22;20414;-86
2022/03/27 09:06:21;;;;;;;27.63;15.55;;;21.60;1.00;;;;;;6232582;22;20769;-86
2022/03/27 09:09:09;;;;;;;30.92;16.27;;;21.60;1.00;;;;;;6275296;22;20027;-84
2022/03/27 09:11:58;;;;;;;24.13;14.90;;;21.10;1.00;;;;;;6253959;22;20031;-84
2022/03/27 09:14:47;;;;;;;24.73;13.93;;;21.00;1.00;;;;;;6253500;22;20300;-85
2022/03/27 09:18:02;;;;;;;29.45;14.25;;;21.90;1.00;;;;;;6273873;22;20035;-83
2022/03/27 09:20:53;;;;;;;24.38;13.80;;;21.70;1.00;;;;;;6275766;22;20035;-83
2022/03/27 09:23:40;;;;;;;26.50;14.82;;;22.00;1.00;;;;;;6276771;22;20034;-83
2022/03/27 09:26:31;;;;;;;26.92;14.35;;;22.20;1.00;;;;;;6275265;22;20434;-85
2022/03/27 09:29:20;;;;;;;25.42;14.32;;;22.60;1.00;;;;;;6275266;22;20024;-83
2022/03/27 09:32:07;;;;;;;24.23;14.25;;;22.40;1.00;;;;;;6253422;22;20024;-83
2022/03/27 09:35:06;;;;;;;25.10;13.65;;;22.70;1.00;;;;;;6280030;22;20023;-83
2022/03/27 09:37:56;;;;;;;34.75;14.77;;;23.00;1.00;;;;;;6262440;22;20336;-84
2022/03/27 09:40:44;;;;;;;27.40;14.00;;;22.60;1.00;;;;;;6277759;22;20051;-85
2022/03/27 09:43:37;;;;;;;24.08;13.38;;;23.00;1.00;;;;;;6277288;22;20019;-87
2022/03/27 09:46:29;;;;;;;22.17;13.02;;;22.70;1.00;;;;;;6256089;22;20118;-84
2022/03/27 09:49:21;;;;;;;23.67;13.77;;;22.30;1.00;;;;;;6275198;22;20023;-86
2022/03/27 09:52:49;;;;;;;21.67;12.65;;;22.00;1.00;;;;;;6254565;22;20042;-84
2022/03/27 09:55:37;;;;;;;25.13;13.43;;;22.60;1.00;;;;;;6275464;22;20038;-85
2022/03/27 09:58:42;;;;;;;26.20;14.30;;;22.70;1.00;;;;;;6252839;22;20368;-81
2022/03/27 10:01:31;;;;;;;28.25;13.65;;;22.90;1.00;;;;;;6253620;22;20036;-86
2022/03/27 10:04:20;;;;;;;26.67;13.02;;;23.10;1.00;;;;;;6257023;22;20019;-85
2022/03/27 10:07:18;;;;;;;24.23;12.73;;;22.80;1.00;;;;;;6276170;22;20034;-85
2022/03/27 10:10:07;;;;;;;26.55;13.02;;;22.80;1.00;;;;;;6275179;22;20023;-81
2022/03/27 10:12:58;;;;;;;24.50;12.75;;;22.50;1.00;;;;;;6254081;22;20024;-83
2022/03/27 10:15:47;;;;;;;23.13;12.68;;;22.80;1.00;;;;;;6277360;22;20020;-82
2022/03/27 10:18:36;;;;;;;21.60;12.65;;;22.60;1.00;;;;;;6232125;22;20031;-83
2022/03/27 10:21:27;;;;;;;22.90;12.52;;;23.60;1.00;;;;;;6254680;22;20031;-84
2022/03/27 10:24:16;;;;;;;25.73;12.50;;;24.50;1.00;;;;;;6255039;22;20032;-84
2022/03/27 10:27:04;;;;;;;26.13;12.00;;;24.70;1.00;;;;;;6276375;22;20111;-84
2022/03/27 10:29:54;;;;;;;25.55;11.80;;;24.60;1.00;;;;;;6273914;22;20300;-84
2022/03/27 10:32:43;;;;;;;19.30;13.10;;;24.70;1.00;;;;;;6254477;22;20027;-84
2022/03/27 10:36:03;;;;;;;27.45;12.93;;;24.30;1.00;;;;;;6275276;22;20024;-82
2022/03/27 10:39:20;;;;;;;24.88;13.68;;;24.10;1.00;;;;;;6276540;22;20396;-84
2022/03/27 10:42:20;;;;;;;25.45;12.88;;;24.40;1.00;;;;;;6276143;22;20031;-83
2022/03/27 10:45:21;;;;;;;26.60;13.50;;;24.60;1.00;;;;;;6275518;22;20350;-84
2022/03/27 10:48:20;;;;;;;24.10;12.75;;;24.50;1.00;;;;;;6251759;22;20138;-84
2022/03/27 10:51:09;;;;;;;22.67;12.60;;;25.30;1.00;;;;;;6283056;22;20046;-84
2022/03/27 10:54:23;;;;;;;24.20;12.73;;;25.80;1.00;;;;;;6287244;22;20046;-84
2022/03/27 10:57:33;;;;;;;25.92;13.55;;;26.00;1.00;;;;;;6280596;22;20028;-84
2022/03/27 11:00:40;;;;;;;20.45;13.05;;;25.70;1.00;;;;;;6275201;22;20142;-84
2022/03/27 11:03:47;;;;;;;23.88;12.15;;;25.30;1.00;;;;;;6253506;22;20034;-87
2022/03/27 11:06:36;;;;;;;19.30;12.48;;;24.80;1.00;;;;;;6265557;22;20039;-84
2022/03/27 11:09:32;;;;;;;24.42;12.52;;;24.90;1.00;;;;;;6288505;22;20319;-86
2022/03/27 11:12:24;;;;;;;28.08;13.23;;;25.10;1.00;;;;;;6288172;22;20020;-86
2022/03/27 11:15:13;;;;;;;27.90;12.77;;;25.60;1.00;;;;;;6288398;22;20030;-84
2022/03/27 11:18:10;;;;;;;23.10;12.43;;;24.70;1.00;;;;;;6268200;22;20023;-81
2022/03/27 11:20:59;;;;;;;20.90;12.13;;;25.20;1.00;;;;;;6301083;22;20067;-82
2022/03/27 11:23:46;;;;;;;21.67;12.38;;;25.40;1.00;;;;;;6291400;22;20078;-84
2022/03/27 11:26:35;;;;;;;26.23;13.25;;;25.10;1.00;;;;;;6288435;22;20497;-86
2022/03/27 11:29:24;;;;;;;20.42;11.85;;;24.60;1.00;;;;;;6288524;22;20046;-85
2022/03/27 11:32:11;;;;;;;19.58;11.65;;;25.00;1.00;;;;;;6258616;22;20028;-86
2022/03/27 11:35:17;;;;;;;20.38;11.13;;;25.60;1.00;;;;;;6278243;22;20370;-86
2022/03/27 11:38:35;;;;;;;19.63;10.45;;;25.50;1.00;;;;;;6276140;22;20031;-86
2022/03/27 11:41:45;;;;;;;19.70;11.65;;;26.40;1.00;;;;;;6271857;22;20024;-85
2022/03/27 11:47:49;;;;;;;19.80;9.63;;;25.50;1.00;;;;;;6275532;22;20015;-85
2022/03/27 11:50:36;;;;;;;16.05;10.15;;;24.90;1.00;;;;;;6256067;22;20035;-86
2022/03/27 11:53:35;;;;;;;16.15;9.60;;;25.70;1.00;;;;;;6257307;22;20486;-83
2022/03/27 11:56:24;;;;;;;21.23;10.85;;;26.30;1.00;;;;;;6252957;22;20139;-85
2022/03/27 11:59:12;;;;;;;17.35;10.38;;;26.20;1.00;;;;;;6254426;22;20023;-84
2022/03/27 12:02:01;;;;;;;21.05;10.25;;;26.30;1.00;;;;;;6277031;22;20027;-86
2022/03/27 12:05:01;;;;;;;15.95;9.35;;;26.20;1.00;;;;;;6277579;22;20066;-82
2022/03/27 12:07:55;;;;;;;18.33;9.48;;;25.90;1.00;;;;;;6253870;22;20024;-85
2022/03/27 12:10:49;;;;;;;15.77;8.50;;;26.80;22.90;;;;;;6277329;22;20020;-83
2022/03/27 12:13:41;;;;;;;18.13;8.73;;;27.10;5.20;;;;;;6255712;22;20034;-84
2022/03/27 12:16:29;;;;;;;18.30;8.85;;;26.20;72.10;;;;;;6276022;22;20034;-83
2022/03/27 12:19:17;;;;;;;13.85;8.50;;;26.50;56.90;;;;;;6274110;22;20023;-84
2022/03/27 12:22:04;;;;;;;16.98;8.57;;;27.90;61.40;;;;;;6275754;22;20039;-84
2022/03/27 12:24:51;;;;;;;15.55;8.20;;;27.90;46.00;;;;;;6254930;22;20032;-86
2022/03/27 12:30:44;;;;;;;16.98;7.68;;;27.20;1.50;;;;;;6278987;22;20434;-85
2022/03/27 12:33:31;;;;;;;13.13;6.28;;;26.80;39.70;;;;;;6255197;22;20085;-83
2022/03/27 12:36:19;;;;;;;13.73;6.10;;;26.30;91.90;;;;;;6254634;22;20450;-84
2022/03/27 12:39:13;;;;;;;12.23;6.35;;;27.50;97.30;;;;;;6277756;22;20082;-84
2022/03/27 12:42:01;;;;;;;10.30;6.30;;;28.40;99.90;;;;;;6276109;22;20020;-83
2022/03/27 12:44:50;;;;;;;15.80;8.82;;;29.10;99.90;;;;;;6257558;22;20038;-85
2022/03/27 12:47:41;;;;;;;14.30;9.13;;;29.30;99.90;;;;;;6277335;22;20024;-85
2022/03/27 12:50:31;;;;;;;17.65;9.23;;;28.90;99.90;;;;;;6276749;22;20019;-84
2022/03/27 12:53:19;;;;;;;13.20;8.13;;;29.20;99.90;;;;;;6275127;22;20077;-85
2022/03/27 12:56:11;;;;;;;12.23;7.30;;;28.80;99.90;;;;;;6276010;22;20031;-84
2022/03/27 12:59:16;;;;;;;12.70;7.33;;;28.80;99.90;;;;;;6254449;22;20023;-85
2022/03/27 13:02:23;;;;;;;12.00;8.02;;;28.70;99.90;;;;;;6275292;22;20049;-85
2022/03/27 13:05:11;;;;;;;12.55;8.10;;;28.90;99.90;;;;;;6277715;22;20027;-84
2022/03/27 13:07:58;;;;;;;14.25;8.02;;;28.70;99.90;;;;;;6254014;22;20089;-84
2022/03/27 13:11:08;;;;;;;14.80;7.20;;;28.80;99.90;;;;;;6275555;22;20446;-84
2022/03/27 13:14:03;;;;;;;12.15;7.30;;;28.70;99.90;;;;;;6275763;22;20442;-85
2022/03/27 13:16:58;;;;;;;11.73;7.00;;;28.20;99.90;;;;;;6278233;22;20023;-84
2022/03/27 13:19:47;;;;;;;13.70;8.60;;;29.20;99.90;;;;;;6276368;22;20024;-84
2022/03/27 13:22:36;;;;;;;15.10;6.93;;;28.90;99.90;;;;;;6285224;22;20039;-85
2022/03/27 13:25:24;;;;;;;13.90;6.95;;;27.80;99.90;;;;;;6259195;22;20133;-84
2022/03/27 13:28:11;;;;;;;13.18;6.72;;;29.10;99.90;;;;;;6278816;22;20143;-85
2022/03/27 13:31:02;;;;;;;14.20;7.68;;;30.20;99.90;;;;;;6258425;22;20027;-84
2022/03/27 13:33:50;;;;;;;13.68;7.07;;;30.30;1.00;;;;;;6253969;22;20027;-84
2022/03/27 13:36:39;;;;;;;15.07;7.07;;;29.70;10.00;;;;;;6276690;22;20028;-84
2022/03/27 13:39:29;;;;;;;13.57;7.07;;;29.60;79.40;;;;;;6276702;22;20034;-87
2022/03/27 13:45:26;;;;;;;13.05;7.05;;;28.80;99.90;;;;;;6276920;22;20027;-87
2022/03/27 13:48:14;;;;;;;11.80;7.30;;;28.10;99.90;;;;;;6278058;22;20035;-85
2022/03/27 13:51:03;;;;;;;16.30;7.35;;;28.00;88.70;;;;;;6287945;22;20007;-85
2022/03/27 13:53:51;;;;;;;10.75;6.28;;;27.10;99.90;;;;;;6268217;22;20030;-85
2022/03/27 13:56:40;;;;;;;11.05;6.28;;;28.00;99.90;;;;;;6269751;22;20054;-87
2022/03/27 13:59:30;;;;;;;11.10;7.35;;;28.10;99.90;;;;;;6267207;22;20034;-84
2022/03/27 14:02:17;;;;;;;16.02;7.05;;;28.90;99.90;;;;;;6269245;22;20024;-85
2022/03/27 14:05:05;;;;;;;9.48;6.85;;;28.40;99.90;;;;;;6296651;22;20095;-82
2022/03/27 14:07:54;;;;;;;12.50;7.25;;;28.00;99.90;;;;;;6292752;22;20024;-84
2022/03/27 14:10:41;;;;;;;12.68;7.25;;;28.60;99.90;;;;;;6295212;22;20034;-82
2022/03/27 14:13:29;;;;;;;12.07;7.15;;;29.70;99.90;;;;;;6300415;22;20019;-85
2022/03/27 14:16:16;;;;;;;11.75;6.72;;;29.60;99.90;;;;;;6290137;22;20093;-83
2022/03/27 14:19:05;;;;;;;14.65;7.15;;;29.60;99.90;;;;;;6290920;22;20024;-85
2022/03/27 14:21:56;;;;;;;14.23;7.35;;;30.60;99.90;;;;;;6248363;22;20034;-85
2022/03/27 14:24:50;;;;;;;12.00;6.53;;;28.70;99.90;;;;;;6281155;22;20326;-85
2022/03/27 14:27:42;;;;;;;14.93;7.07;;;28.60;99.90;;;;;;6278595;22;20105;-85
2022/03/27 14:30:34;;;;;;;10.85;6.57;;;28.10;1.00;;;;;;6279017;22;20102;-87
2022/03/27 14:33:28;;;;;;;14.02;7.07;;;29.10;1.00;;;;;;6277313;22;20045;-84
2022/03/27 14:36:19;;;;;;;10.05;6.97;;;30.30;99.90;;;;;;6276914;22;20031;-84
2022/03/27 14:39:06;;;;;;;11.70;6.32;;;29.80;99.90;;;;;;6257832;22;20030;-85
2022/03/27 14:41:54;;;;;;;11.85;7.07;;;29.70;1.00;;;;;;6277295;22;20093;-84
2022/03/27 14:44:44;;;;;;;10.93;7.20;;;29.30;1.00;;;;;;6252957;22;20102;-85
2022/03/27 14:47:33;;;;;;;15.23;7.65;;;29.20;29.30;;;;;;6277255;22;20039;-83
2022/03/27 14:50:22;;;;;;;20.10;7.50;;;29.50;1.00;;;;;;6257141;22;20107;-85
2022/03/27 14:53:12;;;;;;;10.45;7.20;;;30.20;45.10;;;;;;6275795;22;20027;-85
2022/03/27 14:56:00;;;;;;;11.35;7.20;;;30.40;99.90;;;;;;6252419;22;20024;-83
2022/03/27 14:58:48;;;;;;;11.63;6.68;;;29.60;1.00;;;;;;6275232;22;20030;-84